sensor_id;sensor_type;location;lat;lon;timestamp;P1;durP1;ratioP1;P2;durP2;ratioP2
21099;SDS011;10708;50.824;4.408;2023-02-11T00:02:05;280.95;;;264.75;;
21099;SDS011;10708;50.824;4.408;2023-02-11T00:07:09;197.85;;;185.98;;
21099;SDS011;10708;50.824;4.408;2023-02-11T00:12:11;295.00;;;277.90;;
21099;SDS011;10708;50.824;4.408;2023-02-11T00:17:14;273.15;;;257.15;;
21099;SDS011;10708;50.824;4.408;2023-02-11T00:22:18;287.50;;;270.95;;
21099;SDS011;10708;50.824;4.408;2023-02-11T00:27:20;297.40;;;280.95;;
21099;SDS011;10708;50.824;4.408;2023-02-11T00:32:23;305.30;;;288.20;;
21099;SDS011;10708;50.824;4.408;2023-02-11T00:37:26;336.17;;;316.38;;
21099;SDS011;10708;50.824;4.408;2023-02-11T00:42:31;305.47;;;288.50;;
21099;SDS011;10708;50.824;4.408;2023-02-11T00:47:35;157.98;;;148.43;;
21099;SDS011;10708;50.824;4.408;2023-02-11T00:52:38;190.50;;;179.43;;
21099;SDS011;10708;50.824;4.408;2023-02-11T00:57:41;108.97;;;101.73;;
21099;SDS011;10708;50.824;4.408;2023-02-11T01:02:44;83.37;;;77.47;;
21099;SDS011;10708;50.824;4.408;2023-02-11T01:07:48;112.70;;;105.15;;
21099;SDS011;10708;50.824;4.408;2023-02-11T01:12:50;105.95;;;98.68;;
21099;SDS011;10708;50.824;4.408;2023-02-11T01:17:52;138.93;;;130.00;;
21099;SDS011;10708;50.824;4.408;2023-02-11T01:22:56;114.85;;;107.47;;
21099;SDS011;10708;50.824;4.408;2023-02-11T01:27:58;86.13;;;79.57;;
21099;SDS011;10708;50.824;4.408;2023-02-11T01:33:01;106.73;;;99.57;;
21099;SDS011;10708;50.824;4.408;2023-02-11T01:38:05;114.88;;;107.07;;
21099;SDS011;10708;50.824;4.408;2023-02-11T01:43:08;180.20;;;169.07;;
21099;SDS011;10708;50.824;4.408;2023-02-11T01:48:12;203.95;;;191.93;;
21099;SDS011;10708;50.824;4.408;2023-02-11T01:53:20;184.47;;;173.47;;
21099;SDS011;10708;50.824;4.408;2023-02-11T01:58:40;218.82;;;205.88;;
21099;SDS011;10708;50.824;4.408;2023-02-11T02:03:46;202.00;;;190.13;;
21099;SDS011;10708;50.824;4.408;2023-02-11T02:08:55;211.30;;;199.18;;
21099;SDS011;10708;50.824;4.408;2023-02-11T02:14:03;260.33;;;245.70;;
21099;SDS011;10708;50.824;4.408;2023-02-11T02:25:04;309.75;;;292.65;;
21099;SDS011;10708;50.824;4.408;2023-02-11T02:30:24;345.05;;;326.08;;
21099;SDS011;10708;50.824;4.408;2023-02-11T02:35:52;361.90;;;342.05;;
21099;SDS011;10708;50.824;4.408;2023-02-11T02:41:05;382.92;;;361.90;;
21099;SDS011;10708;50.824;4.408;2023-02-11T02:46:11;351.83;;;332.45;;
21099;SDS011;10708;50.824;4.408;2023-02-11T02:51:24;380.83;;;359.67;;
21099;SDS011;10708;50.824;4.408;2023-02-11T02:56:41;351.75;;;332.40;;
21099;SDS011;10708;50.824;4.408;2023-02-11T03:01:50;351.87;;;332.17;;
21099;SDS011;10708;50.824;4.408;2023-02-11T03:07:02;290.38;;;274.20;;
21099;SDS011;10708;50.824;4.408;2023-02-11T03:12:10;248.50;;;234.73;;
21099;SDS011;10708;50.824;4.408;2023-02-11T03:17:14;237.25;;;223.68;;
21099;SDS011;10708;50.824;4.408;2023-02-11T03:22:21;202.10;;;190.00;;
21099;SDS011;10708;50.824;4.408;2023-02-11T03:27:27;187.15;;;176.48;;
21099;SDS011;10708;50.824;4.408;2023-02-11T03:32:36;209.07;;;196.43;;
21099;SDS011;10708;50.824;4.408;2023-02-11T03:37:43;241.30;;;227.80;;
21099;SDS011;10708;50.824;4.408;2023-02-11T03:42:52;230.83;;;217.30;;
21099;SDS011;10708;50.824;4.408;2023-02-11T03:47:59;136.98;;;128.30;;
21099;SDS011;10708;50.824;4.408;2023-02-11T03:53:06;160.03;;;150.13;;
21099;SDS011;10708;50.824;4.408;2023-02-11T03:58:10;228.55;;;215.55;;
21099;SDS011;10708;50.824;4.408;2023-02-11T04:03:13;162.50;;;152.90;;
21099;SDS011;10708;50.824;4.408;2023-02-11T04:08:16;202.48;;;190.77;;
21099;SDS011;10708;50.824;4.408;2023-02-11T04:13:19;150.33;;;141.17;;
21099;SDS011;10708;50.824;4.408;2023-02-11T04:18:21;153.68;;;144.38;;
21099;SDS011;10708;50.824;4.408;2023-02-11T04:23:25;149.93;;;140.82;;
21099;SDS011;10708;50.824;4.408;2023-02-11T04:28:27;127.57;;;119.15;;
21099;SDS011;10708;50.824;4.408;2023-02-11T04:33:29;158.98;;;148.65;;
21099;SDS011;10708;50.824;4.408;2023-02-11T04:38:33;143.05;;;133.48;;
21099;SDS011;10708;50.824;4.408;2023-02-11T04:43:35;154.20;;;144.50;;
21099;SDS011;10708;50.824;4.408;2023-02-11T04:48:38;157.32;;;147.13;;
21099;SDS011;10708;50.824;4.408;2023-02-11T04:53:41;152.40;;;142.50;;
21099;SDS011;10708;50.824;4.408;2023-02-11T04:58:44;164.23;;;154.02;;
21099;SDS011;10708;50.824;4.408;2023-02-11T05:03:46;135.32;;;126.47;;
21099;SDS011;10708;50.824;4.408;2023-02-11T05:08:50;133.32;;;124.43;;
21099;SDS011;10708;50.824;4.408;2023-02-11T05:13:52;131.00;;;122.38;;
21099;SDS011;10708;50.824;4.408;2023-02-11T05:18:55;132.05;;;123.32;;
21099;SDS011;10708;50.824;4.408;2023-02-11T05:23:59;127.93;;;118.40;;
21099;SDS011;10708;50.824;4.408;2023-02-11T05:29:01;110.35;;;101.95;;
21099;SDS011;10708;50.824;4.408;2023-02-11T05:34:04;113.13;;;105.03;;
21099;SDS011;10708;50.824;4.408;2023-02-11T05:39:07;173.13;;;161.77;;
21099;SDS011;10708;50.824;4.408;2023-02-11T05:44:10;195.03;;;182.27;;
21099;SDS011;10708;50.824;4.408;2023-02-11T05:49:12;321.55;;;302.13;;
21099;SDS011;10708;50.824;4.408;2023-02-11T05:54:16;317.20;;;298.08;;
21099;SDS011;10708;50.824;4.408;2023-02-11T05:59:18;287.05;;;269.52;;
21099;SDS011;10708;50.824;4.408;2023-02-11T06:04:20;269.08;;;251.95;;
21099;SDS011;10708;50.824;4.408;2023-02-11T06:09:24;196.63;;;183.93;;
21099;SDS011;10708;50.824;4.408;2023-02-11T06:14:26;220.52;;;206.43;;
21099;SDS011;10708;50.824;4.408;2023-02-11T06:19:29;215.57;;;201.33;;
21099;SDS011;10708;50.824;4.408;2023-02-11T06:24:33;201.60;;;188.38;;
21099;SDS011;10708;50.824;4.408;2023-02-11T06:29:36;189.82;;;177.23;;
21099;SDS011;10708;50.824;4.408;2023-02-11T06:34:38;242.07;;;226.65;;
21099;SDS011;10708;50.824;4.408;2023-02-11T06:44:47;344.27;;;323.77;;
21099;SDS011;10708;50.824;4.408;2023-02-11T06:49:49;348.05;;;327.00;;
21099;SDS011;10708;50.824;4.408;2023-02-11T06:54:53;373.60;;;351.23;;
21099;SDS011;10708;50.824;4.408;2023-02-11T06:59:55;329.30;;;308.65;;
21099;SDS011;10708;50.824;4.408;2023-02-11T07:04:58;371.80;;;348.90;;
21099;SDS011;10708;50.824;4.408;2023-02-11T07:10:01;328.65;;;308.13;;
21099;SDS011;10708;50.824;4.408;2023-02-11T07:15:05;343.35;;;321.38;;
21099;SDS011;10708;50.824;4.408;2023-02-11T07:20:09;381.35;;;358.20;;
21099;SDS011;10708;50.824;4.408;2023-02-11T07:25:15;382.58;;;359.15;;
21099;SDS011;10708;50.824;4.408;2023-02-11T07:30:18;372.00;;;349.05;;
21099;SDS011;10708;50.824;4.408;2023-02-11T07:35:20;356.30;;;334.40;;
21099;SDS011;10708;50.824;4.408;2023-02-11T07:40:24;366.55;;;343.85;;
21099;SDS011;10708;50.824;4.408;2023-02-11T07:45:26;348.77;;;326.50;;
21099;SDS011;10708;50.824;4.408;2023-02-11T07:50:29;364.48;;;341.88;;
21099;SDS011;10708;50.824;4.408;2023-02-11T07:55:33;256.97;;;239.33;;
21099;SDS011;10708;50.824;4.408;2023-02-11T08:00:35;270.90;;;252.77;;
21099;SDS011;10708;50.824;4.408;2023-02-11T08:05:38;377.35;;;352.83;;
21099;SDS011;10708;50.824;4.408;2023-02-11T08:10:41;488.77;;;457.30;;
21099;SDS011;10708;50.824;4.408;2023-02-11T08:15:44;465.77;;;436.45;;
21099;SDS011;10708;50.824;4.408;2023-02-11T08:20:46;406.87;;;380.80;;
21099;SDS011;10708;50.824;4.408;2023-02-11T08:25:50;433.55;;;404.73;;
21099;SDS011;10708;50.824;4.408;2023-02-11T08:30:52;349.47;;;326.83;;
21099;SDS011;10708;50.824;4.408;2023-02-11T08:35:54;379.90;;;355.45;;
21099;SDS011;10708;50.824;4.408;2023-02-11T08:40:59;253.73;;;235.40;;
21099;SDS011;10708;50.824;4.408;2023-02-11T08:46:02;227.40;;;210.47;;
21099;SDS011;10708;50.824;4.408;2023-02-11T08:51:05;338.63;;;314.17;;
21099;SDS011;10708;50.824;4.408;2023-02-11T08:56:11;351.55;;;326.90;;
21099;SDS011;10708;50.824;4.408;2023-02-11T09:01:15;478.40;;;446.63;;
21099;SDS011;10708;50.824;4.408;2023-02-11T09:06:20;423.40;;;395.17;;
21099;SDS011;10708;50.824;4.408;2023-02-11T09:11:25;507.83;;;473.17;;
21099;SDS011;10708;50.824;4.408;2023-02-11T09:16:30;577.20;;;536.90;;
21099;SDS011;10708;50.824;4.408;2023-02-11T09:21:34;535.53;;;499.85;;
21099;SDS011;10708;50.824;4.408;2023-02-11T09:26:37;429.95;;;400.20;;
21099;SDS011;10708;50.824;4.408;2023-02-11T09:31:43;363.08;;;338.13;;
21099;SDS011;10708;50.824;4.408;2023-02-11T09:36:45;446.75;;;414.40;;
21099;SDS011;10708;50.824;4.408;2023-02-11T09:41:57;343.17;;;319.00;;
21099;SDS011;10708;50.824;4.408;2023-02-11T09:47:14;376.85;;;349.98;;
21099;SDS011;10708;50.824;4.408;2023-02-11T09:52:29;186.90;;;170.10;;
21099;SDS011;10708;50.824;4.408;2023-02-11T09:57:40;217.18;;;199.27;;
21099;SDS011;10708;50.824;4.408;2023-02-11T10:02:46;257.73;;;237.70;;
21099;SDS011;10708;50.824;4.408;2023-02-11T10:08:07;229.70;;;211.53;;
21099;SDS011;10708;50.824;4.408;2023-02-11T10:13:22;247.80;;;228.73;;
21099;SDS011;10708;50.824;4.408;2023-02-11T10:18:45;357.80;;;332.40;;
21099;SDS011;10708;50.824;4.408;2023-02-11T10:24:09;493.05;;;459.15;;
21099;SDS011;10708;50.824;4.408;2023-02-11T10:29:20;462.55;;;431.00;;
21099;SDS011;10708;50.824;4.408;2023-02-11T10:34:36;611.63;;;570.25;;
21099;SDS011;10708;50.824;4.408;2023-02-11T10:39:41;559.33;;;520.80;;
21099;SDS011;10708;50.824;4.408;2023-02-11T10:44:48;570.13;;;530.15;;
21099;SDS011;10708;50.824;4.408;2023-02-11T10:49:58;402.25;;;374.27;;
21099;SDS011;10708;50.824;4.408;2023-02-11T10:55:04;305.50;;;282.05;;
21099;SDS011;10708;50.824;4.408;2023-02-11T11:00:22;464.75;;;433.38;;
21099;SDS011;10708;50.824;4.408;2023-02-11T11:05:33;593.10;;;552.35;;
21099;SDS011;10708;50.824;4.408;2023-02-11T11:10:38;517.88;;;481.52;;
21099;SDS011;10708;50.824;4.408;2023-02-11T11:15:45;566.72;;;526.45;;
21099;SDS011;10708;50.824;4.408;2023-02-11T11:20:53;142.82;;;128.80;;
21099;SDS011;10708;50.824;4.408;2023-02-11T11:26:00;200.43;;;183.50;;
21099;SDS011;10708;50.824;4.408;2023-02-11T11:31:12;170.88;;;155.80;;
21099;SDS011;10708;50.824;4.408;2023-02-11T11:36:20;187.43;;;171.27;;
21099;SDS011;10708;50.824;4.408;2023-02-11T11:41:33;197.52;;;180.65;;
21099;SDS011;10708;50.824;4.408;2023-02-11T11:46:37;178.50;;;162.80;;
21099;SDS011;10708;50.824;4.408;2023-02-11T11:51:44;117.82;;;105.10;;
21099;SDS011;10708;50.824;4.408;2023-02-11T11:56:53;187.75;;;171.32;;
21099;SDS011;10708;50.824;4.408;2023-02-11T12:02:17;210.65;;;193.55;;
21099;SDS011;10708;50.824;4.408;2023-02-11T12:07:44;276.98;;;256.98;;
21099;SDS011;10708;50.824;4.408;2023-02-11T12:12:59;195.10;;;178.67;;
21099;SDS011;10708;50.824;4.408;2023-02-11T12:18:19;305.80;;;284.33;;
21099;SDS011;10708;50.824;4.408;2023-02-11T12:23:40;311.33;;;289.95;;
21099;SDS011;10708;50.824;4.408;2023-02-11T12:28:54;284.53;;;263.60;;
21099;SDS011;10708;50.824;4.408;2023-02-11T12:34:09;296.90;;;276.40;;
21099;SDS011;10708;50.824;4.408;2023-02-11T12:39:25;247.50;;;228.80;;
21099;SDS011;10708;50.824;4.408;2023-02-11T12:44:36;223.52;;;206.10;;
21099;SDS011;10708;50.824;4.408;2023-02-11T12:49:55;226.38;;;208.40;;
21099;SDS011;10708;50.824;4.408;2023-02-11T12:55:07;196.80;;;180.23;;
21099;SDS011;10708;50.824;4.408;2023-02-11T13:00:18;279.23;;;258.33;;
21099;SDS011;10708;50.824;4.408;2023-02-11T13:05:26;230.83;;;212.73;;
21099;SDS011;10708;50.824;4.408;2023-02-11T13:10:37;196.48;;;180.68;;
21099;SDS011;10708;50.824;4.408;2023-02-11T13:15:45;171.88;;;156.15;;
21099;SDS011;10708;50.824;4.408;2023-02-11T13:20:54;191.77;;;175.13;;
21099;SDS011;10708;50.824;4.408;2023-02-11T13:26:04;205.60;;;188.77;;
21099;SDS011;10708;50.824;4.408;2023-02-11T13:31:13;241.40;;;222.90;;
21099;SDS011;10708;50.824;4.408;2023-02-11T13:36:25;208.43;;;191.02;;
21099;SDS011;10708;50.824;4.408;2023-02-11T13:41:36;217.73;;;200.07;;
21099;SDS011;10708;50.824;4.408;2023-02-11T13:46:48;210.77;;;193.53;;
21099;SDS011;10708;50.824;4.408;2023-02-11T13:51:55;212.23;;;194.73;;
21099;SDS011;10708;50.824;4.408;2023-02-11T14:02:43;206.87;;;190.47;;
21099;SDS011;10708;50.824;4.408;2023-02-11T14:08:12;199.82;;;183.48;;
21099;SDS011;10708;50.824;4.408;2023-02-11T14:19:17;205.63;;;189.07;;
21099;SDS011;10708;50.824;4.408;2023-02-11T14:29:57;173.73;;;158.88;;
21099;SDS011;10708;50.824;4.408;2023-02-11T14:35:29;201.17;;;184.33;;
21099;SDS011;10708;50.824;4.408;2023-02-11T14:40:40;203.30;;;187.17;;
21099;SDS011;10708;50.824;4.408;2023-02-11T14:45:50;211.95;;;194.93;;
21099;SDS011;10708;50.824;4.408;2023-02-11T14:50:58;217.63;;;200.75;;
21099;SDS011;10708;50.824;4.408;2023-02-11T14:56:09;234.68;;;217.32;;
21099;SDS011;10708;50.824;4.408;2023-02-11T15:01:23;254.82;;;236.23;;
21099;SDS011;10708;50.824;4.408;2023-02-11T15:06:29;258.02;;;238.90;;
21099;SDS011;10708;50.824;4.408;2023-02-11T15:11:37;274.57;;;255.40;;
21099;SDS011;10708;50.824;4.408;2023-02-11T15:16:41;278.77;;;258.70;;
21099;SDS011;10708;50.824;4.408;2023-02-11T15:21:45;285.03;;;264.53;;
21099;SDS011;10708;50.824;4.408;2023-02-11T15:26:55;198.00;;;181.80;;
21099;SDS011;10708;50.824;4.408;2023-02-11T15:32:02;180.48;;;165.30;;
21099;SDS011;10708;50.824;4.408;2023-02-11T15:37:06;238.37;;;220.70;;
21099;SDS011;10708;50.824;4.408;2023-02-11T15:42:20;174.57;;;159.87;;
21099;SDS011;10708;50.824;4.408;2023-02-11T15:47:24;263.77;;;244.65;;
21099;SDS011;10708;50.824;4.408;2023-02-11T15:52:26;139.47;;;125.80;;
21099;SDS011;10708;50.824;4.408;2023-02-11T15:57:31;158.60;;;144.30;;
21099;SDS011;10708;50.824;4.408;2023-02-11T16:02:36;148.77;;;135.17;;
21099;SDS011;10708;50.824;4.408;2023-02-11T16:07:45;149.35;;;135.65;;
21099;SDS011;10708;50.824;4.408;2023-02-11T16:12:54;140.50;;;127.13;;
21099;SDS011;10708;50.824;4.408;2023-02-11T16:18:02;123.30;;;110.68;;
21099;SDS011;10708;50.824;4.408;2023-02-11T16:23:16;130.20;;;117.03;;
21099;SDS011;10708;50.824;4.408;2023-02-11T16:28:24;146.32;;;132.55;;
21099;SDS011;10708;50.824;4.408;2023-02-11T16:33:27;135.07;;;122.32;;
21099;SDS011;10708;50.824;4.408;2023-02-11T16:38:30;156.43;;;143.17;;
21099;SDS011;10708;50.824;4.408;2023-02-11T16:43:34;149.25;;;135.93;;
21099;SDS011;10708;50.824;4.408;2023-02-11T16:48:37;151.55;;;137.65;;
21099;SDS011;10708;50.824;4.408;2023-02-11T16:53:39;243.85;;;225.98;;
21099;SDS011;10708;50.824;4.408;2023-02-11T16:58:43;311.98;;;291.00;;
21099;SDS011;10708;50.824;4.408;2023-02-11T17:03:45;245.03;;;226.97;;
21099;SDS011;10708;50.824;4.408;2023-02-11T17:08:48;283.65;;;263.58;;
21099;SDS011;10708;50.824;4.408;2023-02-11T17:13:52;319.77;;;298.47;;
21099;SDS011;10708;50.824;4.408;2023-02-11T17:18:54;328.65;;;306.45;;
21099;SDS011;10708;50.824;4.408;2023-02-11T17:23:57;332.80;;;310.43;;
21099;SDS011;10708;50.824;4.408;2023-02-11T17:29:00;391.75;;;365.60;;
21099;SDS011;10708;50.824;4.408;2023-02-11T17:34:05;441.05;;;411.83;;
21099;SDS011;10708;50.824;4.408;2023-02-11T17:39:08;401.35;;;374.50;;
21099;SDS011;10708;50.824;4.408;2023-02-11T17:44:12;389.83;;;363.85;;
21099;SDS011;10708;50.824;4.408;2023-02-11T17:49:15;395.23;;;368.85;;
21099;SDS011;10708;50.824;4.408;2023-02-11T17:54:19;384.48;;;358.42;;
21099;SDS011;10708;50.824;4.408;2023-02-11T17:59:23;375.35;;;350.10;;
21099;SDS011;10708;50.824;4.408;2023-02-11T18:04:26;256.05;;;237.27;;
21099;SDS011;10708;50.824;4.408;2023-02-11T18:09:28;401.35;;;374.42;;
21099;SDS011;10708;50.824;4.408;2023-02-11T18:14:32;244.93;;;226.90;;
21099;SDS011;10708;50.824;4.408;2023-02-11T18:19:34;177.90;;;162.60;;
21099;SDS011;10708;50.824;4.408;2023-02-11T18:24:37;187.65;;;172.10;;
21099;SDS011;10708;50.824;4.408;2023-02-11T18:29:41;147.75;;;134.80;;
21099;SDS011;10708;50.824;4.408;2023-02-11T18:34:43;178.95;;;163.77;;
21099;SDS011;10708;50.824;4.408;2023-02-11T18:39:46;141.50;;;128.35;;
21099;SDS011;10708;50.824;4.408;2023-02-11T18:44:49;144.30;;;131.27;;
21099;SDS011;10708;50.824;4.408;2023-02-11T18:49:52;148.93;;;135.77;;
21099;SDS011;10708;50.824;4.408;2023-02-11T18:54:54;159.07;;;145.07;;
21099;SDS011;10708;50.824;4.408;2023-02-11T18:59:58;204.85;;;188.63;;
21099;SDS011;10708;50.824;4.408;2023-02-11T19:05:01;216.45;;;199.63;;
21099;SDS011;10708;50.824;4.408;2023-02-11T19:10:05;173.32;;;158.05;;
21099;SDS011;10708;50.824;4.408;2023-02-11T19:15:10;156.90;;;142.47;;
21099;SDS011;10708;50.824;4.408;2023-02-11T19:20:13;221.07;;;203.27;;
21099;SDS011;10708;50.824;4.408;2023-02-11T19:25:16;451.65;;;420.85;;
21099;SDS011;10708;50.824;4.408;2023-02-11T19:30:20;422.30;;;393.00;;
21099;SDS011;10708;50.824;4.408;2023-02-11T19:35:22;256.23;;;236.90;;
21099;SDS011;10708;50.824;4.408;2023-02-11T19:40:25;392.53;;;364.77;;
21099;SDS011;10708;50.824;4.408;2023-02-11T19:45:29;367.47;;;340.97;;
21099;SDS011;10708;50.824;4.408;2023-02-11T19:50:31;580.78;;;541.47;;
21099;SDS011;10708;50.824;4.408;2023-02-11T19:55:33;543.87;;;507.47;;
21099;SDS011;10708;50.824;4.408;2023-02-11T20:00:38;573.08;;;534.90;;
21099;SDS011;10708;50.824;4.408;2023-02-11T20:05:40;549.28;;;512.75;;
21099;SDS011;10708;50.824;4.408;2023-02-11T20:10:46;532.65;;;497.60;;
21099;SDS011;10708;50.824;4.408;2023-02-11T20:15:50;497.50;;;464.27;;
21099;SDS011;10708;50.824;4.408;2023-02-11T20:20:52;497.40;;;463.75;;
21099;SDS011;10708;50.824;4.408;2023-02-11T20:25:54;477.95;;;445.70;;
21099;SDS011;10708;50.824;4.408;2023-02-11T20:30:58;474.25;;;441.60;;
21099;SDS011;10708;50.824;4.408;2023-02-11T20:36:02;469.67;;;437.42;;
21099;SDS011;10708;50.824;4.408;2023-02-11T20:41:07;513.40;;;478.58;;
21099;SDS011;10708;50.824;4.408;2023-02-11T20:46:15;439.75;;;410.33;;
21099;SDS011;10708;50.824;4.408;2023-02-11T20:51:20;442.08;;;411.90;;
21099;SDS011;10708;50.824;4.408;2023-02-11T20:56:25;404.30;;;376.77;;
21099;SDS011;10708;50.824;4.408;2023-02-11T21:01:31;406.83;;;378.37;;
21099;SDS011;10708;50.824;4.408;2023-02-11T21:06:37;385.70;;;359.20;;
21099;SDS011;10708;50.824;4.408;2023-02-11T21:11:41;389.27;;;362.50;;
21099;SDS011;10708;50.824;4.408;2023-02-11T21:16:45;318.10;;;294.83;;
21099;SDS011;10708;50.824;4.408;2023-02-11T21:21:48;327.70;;;305.33;;
21099;SDS011;10708;50.824;4.408;2023-02-11T21:26:51;343.17;;;319.47;;
21099;SDS011;10708;50.824;4.408;2023-02-11T21:31:55;342.73;;;319.10;;
21099;SDS011;10708;50.824;4.408;2023-02-11T21:36:57;355.20;;;331.07;;
21099;SDS011;10708;50.824;4.408;2023-02-11T21:42:03;317.87;;;295.73;;
21099;SDS011;10708;50.824;4.408;2023-02-11T21:47:10;308.23;;;286.53;;
21099;SDS011;10708;50.824;4.408;2023-02-11T21:52:12;384.65;;;359.17;;
21099;SDS011;10708;50.824;4.408;2023-02-11T21:57:15;286.95;;;266.90;;
21099;SDS011;10708;50.824;4.408;2023-02-11T22:02:19;574.33;;;536.65;;
21099;SDS011;10708;50.824;4.408;2023-02-11T22:07:21;583.20;;;544.85;;
21099;SDS011;10708;50.824;4.408;2023-02-11T22:12:24;379.63;;;355.08;;
21099;SDS011;10708;50.824;4.408;2023-02-11T22:17:28;291.00;;;271.52;;
21099;SDS011;10708;50.824;4.408;2023-02-11T22:22:30;185.27;;;171.85;;
21099;SDS011;10708;50.824;4.408;2023-02-11T22:27:33;135.63;;;125.57;;
21099;SDS011;10708;50.824;4.408;2023-02-11T22:32:37;189.63;;;177.07;;
21099;SDS011;10708;50.824;4.408;2023-02-11T22:37:39;243.30;;;227.37;;
21099;SDS011;10708;50.824;4.408;2023-02-11T22:42:41;152.47;;;141.57;;
21099;SDS011;10708;50.824;4.408;2023-02-11T22:47:45;170.23;;;158.93;;
21099;SDS011;10708;50.824;4.408;2023-02-11T22:52:47;268.70;;;253.20;;
21099;SDS011;10708;50.824;4.408;2023-02-11T22:57:50;586.75;;;550.72;;
21099;SDS011;10708;50.824;4.408;2023-02-11T23:02:54;276.60;;;260.50;;
21099;SDS011;10708;50.824;4.408;2023-02-11T23:07:57;165.77;;;155.35;;
21099;SDS011;10708;50.824;4.408;2023-02-11T23:12:59;142.53;;;133.27;;
21099;SDS011;10708;50.824;4.408;2023-02-11T23:18:04;141.20;;;132.23;;
21099;SDS011;10708;50.824;4.408;2023-02-11T23:23:06;138.90;;;130.17;;
21099;SDS011;10708;50.824;4.408;2023-02-11T23:28:09;149.07;;;139.90;;
21099;SDS011;10708;50.824;4.408;2023-02-11T23:33:13;125.13;;;117.13;;
21099;SDS011;10708;50.824;4.408;2023-02-11T23:38:15;140.48;;;131.70;;
21099;SDS011;10708;50.824;4.408;2023-02-11T23:43:18;321.58;;;303.70;;
21099;SDS011;10708;50.824;4.408;2023-02-11T23:48:21;324.88;;;306.70;;
21099;SDS011;10708;50.824;4.408;2023-02-11T23:53:24;284.65;;;268.63;;
21099;SDS011;10708;50.824;4.408;2023-02-11T23:58:26;153.07;;;143.90;;
